Priwall — V2OX8 — position and weather

sailwx.info

Track history (hours):
 
Tides and Currents Weather Stations Pressure Air Temp Water Temp Dewpoint Dewpoint Depression Visibility Wind Speed Wind Dir Waves Ship Positions

Priwall

Last reported at 2017-Mar-23 10:06 UTC. Time now 2017-Mar-24 06:12 UTC.
Position N 46°32' E 032°07'.

Length 88 m; draft 3.2 m.

Type: Cargo ship. MMSI: 304739000.

Date/timePositionNaut miles runAvg speedWind from/ knotsBaromVisibWave heightAir tempDewpointWater temp
2017-Mar-23 10:06N 46°32' E 032°07'4 7.2
2017-Mar-23 09:33N 46°32' E 032°02'8 8.5
2017-Mar-23 08:33N 46°35' E 031°50'10 9.6
2017-Mar-23 07:33N 46°35' E 031°36'6 6.0
2017-Mar-23 06:33N 46°35' E 031°27'6 5.5
2017-Mar-23 05:33N 46°35' E 031°19'10 9.8
2017-Mar-23 04:33N 46°34' E 031°05'7 6.9
2017-Mar-23 03:33N 46°30' E 030°57'9 8.5
2017-Mar-23 02:34N 46°22' E 030°57'10 9.5
2017-Mar-23 01:32N 46°13' E 031°03'  
2017-Mar-16 19:33N 37°42' E 023°41'10 9.6
2017-Mar-16 18:33N 37°51' E 023°37'8 8.3
2017-Mar-16 17:33N 37°58' E 023°33'4 3.4
2017-Mar-16 16:30N 38°02' E 023°33'0 0.0
2017-Mar-16 15:33N 38°02' E 023°33'0 0.0
2017-Mar-16 14:30N 38°02' E 023°33'0 0.0
2017-Mar-16 13:30N 38°02' E 023°33'0 0.0
2017-Mar-16 12:33N 38°02' E 023°33'0 0.0
2017-Mar-16 11:30N 38°02' E 023°33'0 0.0
2017-Mar-16 10:33N 38°02' E 023°33'0 0.0
2017-Mar-16 09:33N 38°02' E 023°33'0 0.0
2017-Mar-16 08:27N 38°02' E 023°33'0 0.0
2017-Mar-16 07:33N 38°02' E 023°33'0 0.0
2017-Mar-16 06:30N 38°02' E 023°33'0 0.0
2017-Mar-16 05:33N 38°02' E 023°33'0 0.0
2017-Mar-16 04:24N 38°02' E 023°33'0 0.0
2017-Mar-16 03:30N 38°02' E 023°33'0 0.0
2017-Mar-16 02:33N 38°02' E 023°33'0 0.0
2017-Mar-16 01:33N 38°02' E 023°33'0 0.0
2017-Mar-16 00:33N 38°02' E 023°33'0 0.0
2017-Mar-15 23:33N 38°02' E 023°33'0 0.0
2017-Mar-15 22:33N 38°02' E 023°33'0 0.0
2017-Mar-15 21:33N 38°02' E 023°33'0 0.0
2017-Mar-15 20:33N 38°02' E 023°33'0 0.0
2017-Mar-15 19:33N 38°02' E 023°33'0 0.0
2017-Mar-15 18:33N 38°02' E 023°33'0 0.0
2017-Mar-15 17:33N 38°02' E 023°33'0 0.0
2017-Mar-15 16:33N 38°02' E 023°33'0 0.0
2017-Mar-15 15:33N 38°02' E 023°33'0 0.0
2017-Mar-15 14:33N 38°02' E 023°33'0 0.0
2017-Mar-15 13:33N 38°02' E 023°33'0 0.0
2017-Mar-15 12:33N 38°02' E 023°33'0 0.0
2017-Mar-15 11:33N 38°02' E 023°33'0 0.0
2017-Mar-15 10:33N 38°02' E 023°33'0 0.0
2017-Mar-15 09:33N 38°02' E 023°33'0 0.0
2017-Mar-15 08:33N 38°02' E 023°33'0 0.1
2017-Mar-15 07:33N 38°02' E 023°32'0 0.1
2017-Mar-15 06:33N 38°02' E 023°33'0 0.0
2017-Mar-15 05:33N 38°02' E 023°33'0 0.0
2017-Mar-15 04:33N 38°02' E 023°33'0 0.0
2017-Mar-15 03:30N 38°02' E 023°33'0 0.0
2017-Mar-15 02:33N 38°02' E 023°33'0 0.0
2017-Mar-15 01:33N 38°02' E 023°33'0 0.0
2017-Mar-15 00:33N 38°02' E 023°33'0 0.0
2017-Mar-14 23:33N 38°02' E 023°33'0 0.0
2017-Mar-14 22:33N 38°02' E 023°33'0 0.0
2017-Mar-14 21:33N 38°02' E 023°33'0 0.0
2017-Mar-14 20:33N 38°02' E 023°33'0 0.0
2017-Mar-14 19:33N 38°02' E 023°33'0 0.0
2017-Mar-14 18:30N 38°02' E 023°33'0 0.0
2017-Mar-14 17:33N 38°02' E 023°33'0 0.0
2017-Mar-14 16:33N 38°02' E 023°33'0 0.0
2017-Mar-14 15:27N 38°02' E 023°33'0 0.0
2017-Mar-14 14:33N 38°02' E 023°33'0 0.0
2017-Mar-14 13:33N 38°02' E 023°33'0 0.0
2017-Mar-14 12:33N 38°02' E 023°33'0 0.0
2017-Mar-14 11:33N 38°02' E 023°33'0 0.0
2017-Mar-14 10:33N 38°02' E 023°33'0 0.0
2017-Mar-14 09:33N 38°02' E 023°33'0 0.0
2017-Mar-14 08:33N 38°02' E 023°33'0 0.0
2017-Mar-14 07:33N 38°02' E 023°33'0 0.0
2017-Mar-14 06:33N 38°02' E 023°33'0 0.0
2017-Mar-14 05:33N 38°02' E 023°33'0 0.0
2017-Mar-14 04:30N 38°02' E 023°33'0 0.0
2017-Mar-14 03:33N 38°02' E 023°33'0 0.0
2017-Mar-14 02:33N 38°02' E 023°33'0 0.0
2017-Mar-14 01:33N 38°02' E 023°33'0 0.0
2017-Mar-14 00:33N 38°02' E 023°33'0 0.0
2017-Mar-13 23:33N 38°02' E 023°33'0 0.0
2017-Mar-13 22:33N 38°02' E 023°33'0 0.0
2017-Mar-13 21:33N 38°02' E 023°33'0 0.0
2017-Mar-13 20:33N 38°02' E 023°33'0 0.0
2017-Mar-13 19:33N 38°02' E 023°33'0 0.0
2017-Mar-13 18:33N 38°02' E 023°33'0 0.0
2017-Mar-13 17:33N 38°02' E 023°33'0 0.0
2017-Mar-13 16:33N 38°02' E 023°33'0 0.0
2017-Mar-13 15:30N 38°02' E 023°33'0 0.0
2017-Mar-13 14:33N 38°02' E 023°33'1 0.6
2017-Mar-13 13:33N 38°01' E 023°33'8 8.0
2017-Mar-13 12:33N 37°54' E 023°36'1 0.6
2017-Mar-13 11:33N 37°54' E 023°36'1 0.8
2017-Mar-13 10:33N 37°55' E 023°35'  
Track history (hours):
 
Tides and Currents Weather Stations Pressure Air Temp Water Temp Dewpoint Dewpoint Depression Visibility Wind Speed Wind Dir Waves Ship Positions

Priwall

Last reported at 2017-Mar-23 10:06 UTC. Time now 2017-Mar-24 06:12 UTC.
Position N 46°32' E 032°07'.

Length 88 m; draft 3.2 m.

Type: Cargo ship. MMSI: 304739000.

Date/timePositionNaut miles runAvg speedWind from/ knotsBaromVisibWave heightAir tempDewpointWater temp
2017-Mar-23 10:06N 46°32' E 032°07'4 7.2
2017-Mar-23 09:33N 46°32' E 032°02'8 8.5
2017-Mar-23 08:33N 46°35' E 031°50'10 9.6
2017-Mar-23 07:33N 46°35' E 031°36'6 6.0
2017-Mar-23 06:33N 46°35' E 031°27'6 5.5
2017-Mar-23 05:33N 46°35' E 031°19'10 9.8
2017-Mar-23 04:33N 46°34' E 031°05'7 6.9
2017-Mar-23 03:33N 46°30' E 030°57'9 8.5
2017-Mar-23 02:34N 46°22' E 030°57'10 9.5
2017-Mar-23 01:32N 46°13' E 031°03'  
2017-Mar-16 19:33N 37°42' E 023°41'10 9.6
2017-Mar-16 18:33N 37°51' E 023°37'8 8.3
2017-Mar-16 17:33N 37°58' E 023°33'4 3.4
2017-Mar-16 16:30N 38°02' E 023°33'0 0.0
2017-Mar-16 15:33N 38°02' E 023°33'0 0.0
2017-Mar-16 14:30N 38°02' E 023°33'0 0.0
2017-Mar-16 13:30N 38°02' E 023°33'0 0.0
2017-Mar-16 12:33N 38°02' E 023°33'0 0.0
2017-Mar-16 11:30N 38°02' E 023°33'0 0.0
2017-Mar-16 10:33N 38°02' E 023°33'0 0.0
2017-Mar-16 09:33N 38°02' E 023°33'0 0.0
2017-Mar-16 08:27N 38°02' E 023°33'0 0.0
2017-Mar-16 07:33N 38°02' E 023°33'0 0.0
2017-Mar-16 06:30N 38°02' E 023°33'0 0.0
2017-Mar-16 05:33N 38°02' E 023°33'0 0.0
2017-Mar-16 04:24N 38°02' E 023°33'0 0.0
2017-Mar-16 03:30N 38°02' E 023°33'0 0.0
2017-Mar-16 02:33N 38°02' E 023°33'0 0.0
2017-Mar-16 01:33N 38°02' E 023°33'0 0.0
2017-Mar-16 00:33N 38°02' E 023°33'0 0.0
2017-Mar-15 23:33N 38°02' E 023°33'0 0.0
2017-Mar-15 22:33N 38°02' E 023°33'0 0.0
2017-Mar-15 21:33N 38°02' E 023°33'0 0.0
2017-Mar-15 20:33N 38°02' E 023°33'0 0.0
2017-Mar-15 19:33N 38°02' E 023°33'0 0.0
2017-Mar-15 18:33N 38°02' E 023°33'0 0.0
2017-Mar-15 17:33N 38°02' E 023°33'0 0.0
2017-Mar-15 16:33N 38°02' E 023°33'0 0.0
2017-Mar-15 15:33N 38°02' E 023°33'0 0.0
2017-Mar-15 14:33N 38°02' E 023°33'0 0.0
2017-Mar-15 13:33N 38°02' E 023°33'0 0.0
2017-Mar-15 12:33N 38°02' E 023°33'0 0.0
2017-Mar-15 11:33N 38°02' E 023°33'0 0.0
2017-Mar-15 10:33N 38°02' E 023°33'0 0.0
2017-Mar-15 09:33N 38°02' E 023°33'0 0.0
2017-Mar-15 08:33N 38°02' E 023°33'0 0.1
2017-Mar-15 07:33N 38°02' E 023°32'0 0.1
2017-Mar-15 06:33N 38°02' E 023°33'0 0.0
2017-Mar-15 05:33N 38°02' E 023°33'0 0.0
2017-Mar-15 04:33N 38°02' E 023°33'0 0.0
2017-Mar-15 03:30N 38°02' E 023°33'0 0.0
2017-Mar-15 02:33N 38°02' E 023°33'0 0.0
2017-Mar-15 01:33N 38°02' E 023°33'0 0.0
2017-Mar-15 00:33N 38°02' E 023°33'0 0.0
2017-Mar-14 23:33N 38°02' E 023°33'0 0.0
2017-Mar-14 22:33N 38°02' E 023°33'0 0.0
2017-Mar-14 21:33N 38°02' E 023°33'0 0.0
2017-Mar-14 20:33N 38°02' E 023°33'0 0.0
2017-Mar-14 19:33N 38°02' E 023°33'0 0.0
2017-Mar-14 18:30N 38°02' E 023°33'0 0.0
2017-Mar-14 17:33N 38°02' E 023°33'0 0.0
2017-Mar-14 16:33N 38°02' E 023°33'0 0.0
2017-Mar-14 15:27N 38°02' E 023°33'0 0.0
2017-Mar-14 14:33N 38°02' E 023°33'0 0.0
2017-Mar-14 13:33N 38°02' E 023°33'0 0.0
2017-Mar-14 12:33N 38°02' E 023°33'0 0.0
2017-Mar-14 11:33N 38°02' E 023°33'0 0.0
2017-Mar-14 10:33N 38°02' E 023°33'0 0.0
2017-Mar-14 09:33N 38°02' E 023°33'0 0.0
2017-Mar-14 08:33N 38°02' E 023°33'0 0.0
2017-Mar-14 07:33N 38°02' E 023°33'0 0.0
2017-Mar-14 06:33N 38°02' E 023°33'0 0.0
2017-Mar-14 05:33N 38°02' E 023°33'0 0.0
2017-Mar-14 04:30N 38°02' E 023°33'0 0.0
2017-Mar-14 03:33N 38°02' E 023°33'0 0.0
2017-Mar-14 02:33N 38°02' E 023°33'0 0.0
2017-Mar-14 01:33N 38°02' E 023°33'0 0.0
2017-Mar-14 00:33N 38°02' E 023°33'0 0.0
2017-Mar-13 23:33N 38°02' E 023°33'0 0.0
2017-Mar-13 22:33N 38°02' E 023°33'0 0.0
2017-Mar-13 21:33N 38°02' E 023°33'0 0.0
2017-Mar-13 20:33N 38°02' E 023°33'0 0.0
2017-Mar-13 19:33N 38°02' E 023°33'0 0.0
2017-Mar-13 18:33N 38°02' E 023°33'0 0.0
2017-Mar-13 17:33N 38°02' E 023°33'0 0.0
2017-Mar-13 16:33N 38°02' E 023°33'0 0.0
2017-Mar-13 15:30N 38°02' E 023°33'0 0.0
2017-Mar-13 14:33N 38°02' E 023°33'1 0.6
2017-Mar-13 13:33N 38°01' E 023°33'8 8.0
2017-Mar-13 12:33N 37°54' E 023°36'1 0.6
2017-Mar-13 11:33N 37°54' E 023°36'1 0.8
2017-Mar-13 10:33N 37°55' E 023°35'  

Dump ship's entire track history